createdAt,value
2017-12-06T00:01:35.987Z,5.70
2017-12-06T00:04:03.452Z,5.70
2017-12-06T00:06:30.923Z,5.70
2017-12-06T00:08:58.364Z,5.80
2017-12-06T00:11:25.842Z,5.80
2017-12-06T00:13:58.833Z,5.80
2017-12-06T00:16:26.330Z,5.80
2017-12-06T00:18:53.786Z,5.80
2017-12-06T00:21:21.840Z,5.80
2017-12-06T00:23:49.311Z,5.80
2017-12-06T00:39:06.795Z,5.80
2017-12-06T00:41:34.253Z,5.70
2017-12-06T00:44:01.717Z,5.70
2017-12-06T00:46:29.160Z,5.70
2017-12-06T00:48:56.634Z,5.70
2017-12-06T00:51:26.016Z,5.60
2017-12-06T00:53:53.616Z,5.60
2017-12-06T00:56:21.830Z,5.60
2017-12-06T00:58:49.319Z,5.60
2017-12-06T01:01:16.774Z,5.60
2017-12-06T01:03:45.407Z,5.60
2017-12-06T01:06:12.891Z,5.60
2017-12-06T01:08:40.338Z,5.60
2017-12-06T01:11:07.804Z,5.70
2017-12-06T01:13:35.754Z,5.70
2017-12-06T01:16:03.225Z,5.70
2017-12-06T01:18:30.684Z,5.70
2017-12-06T01:20:58.151Z,5.60
2017-12-06T01:23:25.707Z,5.70
2017-12-06T01:25:53.188Z,5.70
2017-12-06T01:28:20.611Z,5.70
2017-12-06T01:30:48.861Z,5.70
2017-12-06T01:33:16.352Z,5.60
2017-12-06T01:35:43.808Z,5.60
2017-12-06T01:38:11.267Z,5.70
2017-12-06T01:40:38.737Z,5.70
2017-12-06T01:43:06.234Z,5.70
2017-12-06T01:45:33.716Z,5.70
2017-12-06T01:48:01.192Z,5.70
2017-12-06T01:50:30.332Z,5.70
2017-12-06T01:52:57.877Z,5.70
2017-12-06T01:55:25.323Z,5.70
2017-12-06T01:57:52.784Z,5.70
2017-12-06T02:00:20.994Z,5.70
2017-12-06T02:02:48.452Z,5.60
2017-12-06T02:05:16.692Z,5.70
2017-12-06T02:07:44.152Z,5.60
2017-12-06T02:10:12.197Z,5.60
2017-12-06T02:12:40.423Z,5.70
2017-12-06T02:15:07.873Z,5.60
2017-12-06T02:17:36.104Z,5.60
2017-12-06T02:20:03.653Z,5.60
2017-12-06T02:22:31.170Z,5.60
2017-12-06T02:24:58.609Z,5.60
2017-12-06T02:27:26.274Z,5.60
2017-12-06T02:29:54.495Z,5.60
2017-12-06T02:32:21.990Z,5.60
2017-12-06T02:34:49.980Z,5.60
2017-12-06T02:37:17.482Z,5.60
2017-12-06T02:39:56.743Z,5.60
2017-12-06T02:42:36.733Z,5.60
2017-12-06T02:45:15.999Z,5.60
2017-12-06T02:47:43.456Z,5.60
2017-12-06T02:50:11.973Z,5.60
2017-12-06T02:52:39.440Z,5.60
2017-12-06T02:55:06.917Z,5.60
2017-12-06T02:57:34.389Z,5.60
2017-12-06T03:00:02.218Z,5.60
2017-12-06T03:02:29.700Z,5.60
2017-12-06T03:05:01.213Z,5.60
2017-12-06T03:07:28.673Z,5.60
2017-12-06T03:09:56.133Z,5.60
2017-12-06T03:12:23.616Z,5.50
2017-12-06T03:14:51.055Z,5.50
2017-12-06T03:17:18.519Z,5.50
2017-12-06T03:19:45.984Z,5.50
2017-12-06T03:22:13.469Z,5.60
2017-12-06T03:24:40.942Z,5.60
2017-12-06T03:27:08.467Z,5.60
2017-12-06T03:29:36.091Z,5.60
2017-12-06T03:32:03.583Z,5.60
2017-12-06T03:34:31.046Z,5.60
2017-12-06T03:36:58.491Z,5.60
2017-12-06T03:39:26.305Z,5.60
2017-12-06T03:41:53.741Z,5.60
2017-12-06T03:44:21.200Z,5.50
2017-12-06T03:46:48.661Z,5.60
2017-12-06T03:49:16.872Z,5.70
2017-12-06T03:51:44.385Z,5.70
2017-12-06T03:54:11.852Z,5.70
2017-12-06T03:56:41.202Z,5.70
2017-12-06T03:59:08.660Z,5.70
2017-12-06T04:01:36.128Z,5.70
2017-12-06T04:04:03.677Z,5.60
2017-12-06T04:06:32.509Z,5.80
2017-12-06T04:08:59.932Z,5.80
2017-12-06T04:11:28.195Z,5.80
2017-12-06T04:13:55.688Z,5.80
2017-12-06T04:16:23.976Z,5.90
2017-12-06T04:18:52.220Z,5.90
2017-12-06T04:21:19.670Z,5.90
2017-12-06T04:23:47.144Z,5.80
2017-12-06T04:26:14.608Z,5.90
2017-12-06T04:28:42.940Z,5.90
2017-12-06T04:31:10.394Z,5.90
2017-12-06T04:33:37.861Z,5.90
2017-12-06T04:36:06.066Z,5.90
2017-12-06T04:38:33.524Z,5.90
2017-12-06T04:41:00.968Z,5.90
2017-12-06T04:43:28.494Z,5.90
2017-12-06T04:45:56.103Z,5.90
2017-12-06T04:48:23.564Z,5.90
2017-12-06T04:50:51.042Z,5.90
2017-12-06T04:53:19.316Z,5.80
2017-12-06T04:55:46.781Z,5.80
2017-12-06T04:58:14.358Z,5.80
2017-12-06T05:00:41.831Z,5.80
2017-12-06T05:03:09.295Z,5.70
2017-12-06T05:05:37.520Z,5.80
2017-12-06T05:08:04.961Z,5.80
2017-12-06T05:10:33.201Z,5.90
2017-12-06T05:13:00.678Z,5.90
2017-12-06T05:15:28.237Z,5.80
2017-12-06T05:17:55.682Z,5.90
2017-12-06T05:20:23.891Z,5.90
2017-12-06T05:22:51.366Z,5.90
2017-12-06T05:25:18.807Z,5.80
2017-12-06T05:27:47.052Z,5.90
2017-12-06T05:30:15.076Z,5.90
2017-12-06T05:32:42.596Z,5.90
2017-12-06T05:35:10.035Z,5.90
2017-12-06T05:37:37.501Z,5.90
2017-12-06T05:40:04.955Z,5.90
2017-12-06T05:42:32.424Z,5.90
2017-12-06T05:44:59.860Z,6.00
2017-12-06T05:47:27.326Z,5.90
2017-12-06T05:49:55.530Z,6.00
2017-12-06T05:52:23.012Z,6.00
2017-12-06T05:54:50.464Z,6.10
2017-12-06T05:57:18.679Z,6.00
2017-12-06T05:59:46.128Z,6.00
2017-12-06T06:02:14.335Z,6.10
2017-12-06T06:04:42.491Z,6.10
2017-12-06T06:07:09.931Z,6.00
2017-12-06T06:09:37.398Z,6.00
2017-12-06T06:12:05.710Z,6.00
2017-12-06T06:14:33.171Z,6.00
2017-12-06T06:17:01.872Z,6.00
2017-12-06T06:19:29.355Z,6.10
2017-12-06T06:21:56.804Z,6.10
2017-12-06T06:24:25.077Z,6.00
2017-12-06T06:26:53.345Z,5.90
2017-12-06T06:29:20.781Z,5.90
2017-12-06T06:31:48.262Z,5.90
2017-12-06T06:34:15.711Z,6.00
2017-12-06T06:36:43.187Z,6.00
2017-12-06T06:39:10.620Z,5.90
2017-12-06T06:41:38.987Z,5.90
2017-12-06T06:44:06.438Z,5.90
2017-12-06T06:46:33.886Z,6.00
2017-12-06T06:49:02.572Z,5.90
2017-12-06T06:51:30.016Z,6.00
2017-12-06T06:53:57.561Z,6.00
2017-12-06T06:56:25.012Z,6.00
2017-12-06T06:58:53.844Z,5.90
2017-12-06T07:01:21.348Z,5.90
2017-12-06T07:03:48.813Z,5.90
2017-12-06T07:06:18.138Z,6.00
2017-12-06T07:08:45.607Z,6.00
2017-12-06T07:11:13.064Z,5.90
2017-12-06T07:13:40.528Z,6.00
2017-12-06T07:16:07.973Z,6.00
2017-12-06T07:18:35.423Z,6.00
2017-12-06T07:21:02.886Z,6.00
2017-12-06T07:23:30.403Z,6.00
2017-12-06T07:25:58.633Z,6.10
2017-12-06T07:28:26.824Z,6.10
2017-12-06T07:30:54.396Z,6.10
2017-12-06T07:33:21.832Z,6.10
2017-12-06T07:35:49.346Z,6.20
2017-12-06T07:38:16.805Z,6.20
2017-12-06T07:40:45.027Z,6.40
2017-12-06T07:43:12.501Z,6.30
2017-12-06T07:45:40.016Z,6.20
2017-12-06T07:48:07.462Z,6.20
2017-12-06T07:50:34.928Z,6.20
2017-12-06T07:53:06.228Z,6.20
2017-12-06T07:55:33.674Z,6.20
2017-12-06T07:58:01.156Z,6.20
2017-12-06T08:00:28.585Z,6.20
2017-12-06T08:02:58.172Z,6.20
2017-12-06T08:05:25.689Z,6.20
2017-12-06T08:07:53.145Z,6.20
2017-12-06T08:10:21.359Z,6.30
2017-12-06T08:12:53.513Z,6.30
2017-12-06T08:15:21.744Z,6.20
2017-12-06T08:17:49.233Z,6.20
2017-12-06T08:20:16.689Z,6.30
2017-12-06T08:22:44.144Z,6.40
2017-12-06T08:25:11.654Z,6.30
2017-12-06T08:27:39.083Z,6.30
2017-12-06T08:30:07.333Z,6.40
2017-12-06T08:32:34.824Z,6.40
2017-12-06T08:35:02.272Z,6.40
2017-12-06T08:37:29.718Z,6.40
2017-12-06T08:39:57.192Z,6.40
2017-12-06T08:42:25.244Z,6.40
2017-12-06T08:44:52.694Z,6.40
2017-12-06T08:47:20.143Z,6.40
2017-12-06T08:49:47.647Z,6.40
2017-12-06T08:52:15.094Z,6.40
2017-12-06T08:54:44.384Z,6.50
2017-12-06T08:57:12.656Z,6.50
2017-12-06T08:59:40.162Z,6.50
2017-12-06T09:02:08.410Z,6.60
2017-12-06T09:04:35.852Z,6.50
2017-12-06T09:07:04.257Z,6.60
2017-12-06T09:09:31.706Z,6.60
2017-12-06T09:11:59.166Z,6.60
2017-12-06T09:14:27.384Z,6.70
2017-12-06T09:16:54.855Z,6.70
2017-12-06T09:19:22.295Z,6.70
2017-12-06T09:21:49.943Z,6.70
2017-12-06T09:24:17.412Z,6.70
2017-12-06T09:26:44.856Z,6.80
2017-12-06T09:29:12.359Z,6.70
2017-12-06T09:31:39.951Z,6.80
2017-12-06T09:34:07.381Z,6.80
2017-12-06T09:36:34.839Z,6.80
2017-12-06T09:39:03.071Z,6.80
2017-12-06T09:41:30.513Z,6.80
2017-12-06T09:43:58.775Z,6.90
2017-12-06T09:46:26.252Z,6.90
2017-12-06T09:48:53.827Z,7.00
2017-12-06T09:51:21.291Z,6.90
2017-12-06T09:53:48.757Z,7.00
2017-12-06T09:56:16.223Z,6.90
2017-12-06T09:58:43.646Z,6.90
2017-12-06T10:01:11.872Z,6.90
2017-12-06T10:03:39.326Z,6.90
2017-12-06T10:06:06.779Z,7.00
2017-12-06T10:08:34.999Z,6.90
2017-12-06T10:11:03.234Z,6.90
2017-12-06T10:13:30.655Z,6.90
2017-12-06T10:15:58.119Z,6.90
2017-12-06T10:18:26.348Z,7.10
2017-12-06T10:20:53.860Z,7.10
2017-12-06T10:23:21.294Z,7.00
2017-12-06T10:25:48.782Z,7.00
2017-12-06T10:28:16.251Z,7.00
2017-12-06T10:30:43.725Z,7.00
2017-12-06T10:33:11.188Z,7.00
2017-12-06T10:35:38.635Z,7.00
2017-12-06T10:38:06.871Z,7.00
2017-12-06T10:40:34.321Z,7.00
2017-12-06T10:43:02.597Z,7.10
2017-12-06T10:45:30.823Z,7.10
2017-12-06T10:47:58.280Z,7.10
2017-12-06T10:50:25.727Z,7.10
2017-12-06T10:52:53.175Z,7.10
2017-12-06T10:55:20.628Z,7.10
2017-12-06T10:57:48.101Z,7.10
2017-12-06T11:00:15.566Z,7.10
2017-12-06T11:02:43.035Z,7.00
2017-12-06T11:05:10.522Z,7.00
2017-12-06T11:07:37.971Z,6.90
2017-12-06T11:10:06.199Z,6.80
2017-12-06T11:12:33.680Z,6.80
2017-12-06T11:15:01.161Z,6.80
2017-12-06T11:17:28.620Z,6.80
2017-12-06T11:19:56.090Z,6.80
2017-12-06T11:22:23.745Z,6.90
2017-12-06T11:24:51.197Z,6.80
2017-12-06T11:27:18.674Z,6.80
2017-12-06T11:29:46.337Z,6.90
2017-12-06T11:32:13.826Z,6.90
2017-12-06T11:34:41.282Z,7.00
2017-12-06T11:37:08.736Z,7.00
2017-12-06T11:39:36.199Z,7.00
2017-12-06T11:42:03.655Z,7.00
2017-12-06T11:44:31.116Z,7.00
2017-12-06T11:47:00.057Z,7.10
2017-12-06T11:49:27.592Z,7.10
2017-12-06T11:51:55.024Z,7.20
2017-12-06T11:54:22.485Z,7.20
2017-12-06T11:56:49.932Z,7.20
2017-12-06T11:59:18.171Z,7.10
2017-12-06T12:01:45.626Z,7.10
2017-12-06T12:04:13.087Z,7.10
2017-12-06T12:06:40.571Z,7.10
2017-12-06T12:09:08.022Z,7.10
2017-12-06T12:11:36.251Z,7.00
2017-12-06T12:14:03.723Z,7.00
2017-12-06T12:16:31.193Z,7.10
2017-12-06T12:18:58.644Z,7.10
2017-12-06T12:21:26.884Z,7.00
2017-12-06T12:23:54.327Z,7.00
2017-12-06T12:26:21.800Z,7.10
2017-12-06T12:28:49.239Z,7.10
2017-12-06T12:31:17.476Z,7.00
2017-12-06T12:33:44.937Z,7.00
2017-12-06T12:36:12.373Z,6.90
2017-12-06T12:38:39.892Z,7.00
2017-12-06T12:41:07.360Z,7.10
2017-12-06T12:43:35.580Z,7.00
2017-12-06T12:46:03.047Z,7.00
2017-12-06T12:48:30.508Z,7.00
2017-12-06T12:50:58.008Z,7.00
2017-12-06T12:53:25.468Z,6.90
2017-12-06T12:55:52.931Z,7.00
2017-12-06T12:58:20.371Z,7.00
2017-12-06T13:00:55.148Z,7.00
2017-12-06T13:03:22.595Z,7.00
2017-12-06T13:05:50.861Z,7.00
2017-12-06T13:08:18.314Z,7.00
2017-12-06T13:10:45.810Z,7.10
2017-12-06T13:13:13.298Z,7.10
2017-12-06T13:15:40.781Z,7.00
2017-12-06T13:18:08.240Z,7.00
2017-12-06T13:20:35.710Z,7.00
2017-12-06T13:23:03.167Z,7.00
2017-12-06T13:25:30.624Z,7.00
2017-12-06T13:27:58.090Z,6.90
2017-12-06T13:30:25.544Z,6.90
2017-12-06T13:32:53.779Z,6.90
2017-12-06T13:35:21.263Z,6.90
2017-12-06T13:37:48.723Z,6.80
2017-12-06T13:40:16.716Z,6.90
2017-12-06T13:42:44.200Z,6.90
2017-12-06T13:45:11.752Z,7.00
2017-12-06T13:47:39.232Z,6.90
2017-12-06T13:50:06.676Z,6.90
2017-12-06T13:52:34.934Z,6.90
2017-12-06T13:55:02.359Z,6.90
2017-12-06T13:57:29.807Z,6.90
2017-12-06T13:59:57.251Z,6.90
2017-12-06T14:02:24.690Z,6.90
2017-12-06T14:04:52.160Z,6.90
2017-12-06T14:07:19.613Z,6.90
2017-12-06T14:09:47.845Z,6.90
2017-12-06T14:12:15.313Z,6.90
2017-12-06T14:14:42.817Z,6.90
2017-12-06T14:17:10.300Z,6.80
2017-12-06T14:19:37.767Z,6.70
2017-12-06T14:22:05.196Z,6.60
2017-12-06T14:24:32.904Z,6.60
2017-12-06T14:27:00.367Z,6.60
2017-12-06T14:29:27.805Z,6.70
2017-12-06T14:31:56.024Z,6.60
2017-12-06T14:34:23.476Z,6.60
2017-12-06T14:36:51.699Z,6.50
2017-12-06T14:39:19.160Z,6.50
2017-12-06T14:41:46.639Z,6.60
2017-12-06T14:44:14.134Z,6.40
2017-12-06T14:46:41.608Z,6.40
2017-12-06T14:49:09.083Z,6.40
2017-12-06T14:51:36.572Z,6.40
2017-12-06T14:54:04.187Z,6.40
2017-12-06T14:56:31.654Z,6.50
2017-12-06T14:58:59.127Z,6.50
2017-12-06T15:01:26.604Z,6.40
2017-12-06T15:03:54.143Z,6.40
2017-12-06T15:06:21.617Z,6.40
2017-12-06T15:08:49.135Z,6.50
2017-12-06T15:11:16.592Z,6.60
2017-12-06T15:13:44.075Z,6.90
2017-12-06T15:16:11.516Z,6.80
2017-12-06T15:18:38.985Z,6.70
2017-12-06T15:21:06.483Z,6.70
2017-12-06T15:23:33.991Z,6.90
2017-12-06T15:26:02.220Z,7.00
2017-12-06T15:28:30.655Z,6.90
2017-12-06T15:30:58.116Z,6.80
2017-12-06T15:33:25.580Z,6.80
2017-12-06T15:35:53.056Z,6.60
2017-12-06T15:38:20.515Z,6.60
2017-12-06T15:40:49.472Z,6.50
2017-12-06T15:43:16.937Z,6.60
2017-12-06T15:45:44.420Z,6.50
2017-12-06T15:48:12.105Z,6.40
2017-12-06T15:50:39.555Z,6.40
2017-12-06T15:53:07.032Z,6.30
2017-12-06T15:55:34.469Z,6.30
2017-12-06T15:58:01.969Z,6.30
2017-12-06T16:00:29.437Z,6.30
2017-12-06T16:02:57.318Z,6.30
2017-12-06T16:05:24.795Z,6.30
2017-12-06T16:07:52.260Z,6.40
2017-12-06T16:10:19.700Z,6.30
2017-12-06T16:12:47.221Z,6.20
2017-12-06T16:15:14.663Z,6.20
2017-12-06T16:17:42.909Z,6.10
2017-12-06T16:20:10.381Z,6.10
2017-12-06T16:22:37.817Z,6.10
2017-12-06T16:25:05.293Z,6.20
2017-12-06T16:27:32.975Z,6.20
2017-12-06T16:30:00.476Z,6.20
2017-12-06T16:32:27.976Z,6.20
2017-12-06T16:35:16.095Z,6.20
2017-12-06T16:37:43.625Z,6.20
2017-12-06T16:40:11.275Z,6.20
2017-12-06T16:42:38.765Z,6.20
2017-12-06T16:45:06.246Z,6.20
2017-12-06T16:47:33.791Z,6.10
2017-12-06T16:50:01.253Z,6.10
2017-12-06T16:52:28.708Z,6.10
2017-12-06T16:54:56.176Z,6.20
2017-12-06T16:57:23.665Z,6.20
2017-12-06T16:59:51.133Z,6.30
2017-12-06T17:02:18.625Z,6.20
2017-12-06T17:04:46.117Z,6.20
2017-12-06T17:07:13.563Z,6.20
2017-12-06T17:09:41.065Z,6.20
2017-12-06T17:12:08.508Z,6.20
2017-12-06T17:14:35.963Z,6.10
2017-12-06T17:17:03.425Z,6.20
2017-12-06T17:19:30.884Z,6.10
2017-12-06T17:21:58.366Z,6.10
2017-12-06T17:24:25.872Z,6.20
2017-12-06T17:26:53.358Z,6.10
2017-12-06T17:29:32.546Z,6.20
2017-12-06T17:32:00.174Z,6.10
2017-12-06T17:34:28.428Z,6.20
2017-12-06T17:36:56.780Z,6.20
2017-12-06T17:39:24.250Z,6.10
2017-12-06T17:41:51.725Z,6.10
2017-12-06T17:53:59.982Z,6.10
2017-12-06T17:56:27.444Z,6.00
2017-12-06T17:58:56.013Z,6.00
2017-12-06T18:01:27.503Z,6.00
2017-12-06T18:16:46.400Z,6.00
2017-12-06T18:19:15.884Z,6.00
2017-12-06T18:21:43.720Z,6.00
2017-12-06T18:24:12.581Z,6.00
2017-12-06T18:26:40.187Z,6.00
2017-12-06T18:29:07.740Z,6.00
2017-12-06T18:34:08.053Z,5.90
2017-12-06T18:36:35.539Z,5.90
2017-12-06T18:41:38.690Z,5.80
2017-12-06T18:44:06.990Z,5.90
2017-12-06T18:46:35.690Z,5.90
2017-12-06T18:49:03.939Z,5.80
2017-12-06T18:51:31.750Z,5.80
2017-12-06T18:53:59.278Z,5.90
2017-12-06T18:56:27.851Z,5.80
2017-12-06T18:58:55.526Z,5.80
2017-12-06T19:01:25.115Z,5.80
2017-12-06T19:03:52.598Z,5.80
2017-12-06T19:06:21.612Z,5.80
2017-12-06T19:08:49.611Z,5.80
2017-12-06T19:11:18.068Z,5.80
2017-12-06T19:13:45.763Z,5.80
2017-12-06T19:16:13.236Z,5.80
2017-12-06T19:18:40.718Z,5.80
2017-12-06T19:21:11.547Z,5.80
2017-12-06T19:23:39.739Z,5.80
2017-12-06T19:35:47.202Z,5.70
2017-12-06T19:38:14.971Z,5.80
2017-12-06T19:40:42.410Z,5.70
2017-12-06T19:56:03.401Z,5.80
2017-12-06T19:58:33.881Z,5.70
2017-12-06T20:01:04.313Z,5.70
2017-12-06T20:03:32.099Z,5.70
2017-12-06T20:08:34.537Z,5.70
2017-12-06T20:11:02.039Z,5.70
2017-12-06T20:13:31.406Z,5.60
2017-12-06T20:15:59.091Z,5.60
2017-12-06T20:18:31.864Z,5.50
2017-12-06T20:20:59.622Z,5.50
2017-12-06T20:33:07.329Z,5.50
2017-12-06T20:35:40.050Z,5.50
2017-12-06T20:38:08.286Z,5.50
2017-12-06T20:50:17.456Z,5.50
2017-12-06T20:52:45.696Z,5.50
2017-12-06T20:57:46.001Z,5.40
2017-12-06T21:00:14.449Z,5.40
2017-12-06T21:12:22.277Z,5.40
2017-12-06T21:24:31.819Z,5.30
2017-12-06T21:29:32.719Z,5.20
2017-12-06T21:32:01.207Z,5.30
2017-12-06T21:34:29.704Z,5.30
2017-12-06T21:36:57.599Z,5.30
2017-12-06T21:39:25.685Z,5.30
2017-12-06T21:41:53.457Z,5.20
2017-12-06T21:44:23.290Z,5.20
2017-12-06T21:46:50.750Z,5.30
2017-12-06T21:49:18.299Z,5.20
2017-12-06T21:51:45.973Z,5.20
2017-12-06T21:54:13.462Z,5.20
2017-12-06T21:56:40.920Z,5.20
2017-12-06T21:59:08.395Z,5.20
2017-12-06T22:11:17.740Z,5.10
2017-12-06T22:23:26.688Z,5.10
2017-12-06T22:25:54.934Z,5.10
2017-12-06T22:38:03.360Z,5.00
2017-12-06T22:40:30.868Z,5.00
2017-12-06T22:42:58.480Z,5.00
2017-12-06T22:45:26.029Z,5.00
2017-12-06T22:47:53.516Z,5.00
2017-12-06T22:50:21.754Z,5.00
2017-12-06T22:52:49.236Z,5.00
2017-12-06T22:55:16.691Z,5.00
2017-12-06T22:57:44.172Z,5.00
2017-12-06T23:00:11.640Z,5.00
2017-12-06T23:02:39.136Z,5.00
2017-12-06T23:05:06.593Z,4.90
2017-12-06T23:07:34.031Z,5.00
2017-12-06T23:10:02.296Z,5.00
2017-12-06T23:12:29.847Z,5.00
2017-12-06T23:14:57.333Z,5.00
2017-12-06T23:17:24.763Z,5.00
2017-12-06T23:19:52.991Z,4.90
2017-12-06T23:22:20.456Z,4.90
2017-12-06T23:24:47.923Z,4.90
2017-12-06T23:27:15.370Z,4.90
2017-12-06T23:29:43.609Z,4.90
2017-12-06T23:32:11.079Z,4.90
2017-12-06T23:34:38.552Z,4.90
2017-12-06T23:37:05.993Z,4.90
2017-12-06T23:39:34.226Z,4.90
2017-12-06T23:42:01.697Z,4.90
2017-12-06T23:44:30.975Z,4.90
2017-12-06T23:46:59.195Z,4.90
2017-12-06T23:49:26.624Z,4.90
2017-12-06T23:51:54.084Z,4.90
2017-12-06T23:54:21.549Z,4.90
2017-12-06T23:56:49.012Z,5.00
2017-12-06T23:59:17.172Z,5.00
